sensor_id;sensor_type;location;lat;lon;timestamp;pressure;altitude;pressure_sealevel;temperature;humidity
19748;BME280;10032;51.386;12.516;2023-08-17T00:02:21;100396.47;;;22.88;100.00
19748;BME280;10032;51.386;12.516;2023-08-17T00:04:47;100406.41;;;22.89;100.00
19748;BME280;10032;51.386;12.516;2023-08-17T00:07:12;100406.72;;;22.88;100.00
19748;BME280;10032;51.386;12.516;2023-08-17T00:09:39;100396.81;;;22.87;100.00
19748;BME280;10032;51.386;12.516;2023-08-17T00:12:05;100401.50;;;22.86;100.00
19748;BME280;10032;51.386;12.516;2023-08-17T00:14:30;100410.94;;;22.85;100.00
19748;BME280;10032;51.386;12.516;2023-08-17T00:16:55;100402.16;;;22.83;100.00
19748;BME280;10032;51.386;12.516;2023-08-17T00:19:21;100400.03;;;22.80;100.00
19748;BME280;10032;51.386;12.516;2023-08-17T00:21:47;100397.91;;;22.77;100.00
19748;BME280;10032;51.386;12.516;2023-08-17T00:24:12;100401.34;;;22.74;100.00
19748;BME280;10032;51.386;12.516;2023-08-17T00:26:38;100394.19;;;22.73;100.00
19748;BME280;10032;51.386;12.516;2023-08-17T00:29:04;100397.75;;;22.65;100.00
19748;BME280;10032;51.386;12.516;2023-08-17T00:31:29;100401.81;;;22.59;100.00
19748;BME280;10032;51.386;12.516;2023-08-17T00:33:55;100397.25;;;22.55;100.00
19748;BME280;10032;51.386;12.516;2023-08-17T00:36:20;100395.63;;;22.54;100.00
19748;BME280;10032;51.386;12.516;2023-08-17T00:38:45;100390.25;;;22.49;100.00
19748;BME280;10032;51.386;12.516;2023-08-17T00:41:11;100387.31;;;22.45;100.00
19748;BME280;10032;51.386;12.516;2023-08-17T00:43:36;100387.31;;;22.45;100.00
19748;BME280;10032;51.386;12.516;2023-08-17T00:46:02;100376.25;;;22.45;100.00
19748;BME280;10032;51.386;12.516;2023-08-17T00:48:27;100374.44;;;22.41;100.00
19748;BME280;10032;51.386;12.516;2023-08-17T00:50:57;100369.06;;;22.36;100.00
19748;BME280;10032;51.386;12.516;2023-08-17T00:53:26;100366.97;;;22.33;100.00
19748;BME280;10032;51.386;12.516;2023-08-17T00:55:53;100366.16;;;22.32;100.00
19748;BME280;10032;51.386;12.516;2023-08-17T00:58:19;100361.25;;;22.29;100.00
19748;BME280;10032;51.386;12.516;2023-08-17T01:00:45;100358.97;;;22.23;100.00
19748;BME280;10032;51.386;12.516;2023-08-17T01:03:10;100362.53;;;22.23;100.00
19748;BME280;10032;51.386;12.516;2023-08-17T01:05:36;100366.13;;;22.24;100.00
19748;BME280;10032;51.386;12.516;2023-08-17T01:08:03;100356.38;;;22.18;100.00
19748;BME280;10032;51.386;12.516;2023-08-17T01:10:43;100358.97;;;22.14;100.00
19748;BME280;10032;51.386;12.516;2023-08-17T01:13:17;100367.38;;;22.09;100.00
19748;BME280;10032;51.386;12.516;2023-08-17T01:15:50;100373.72;;;22.10;100.00
19748;BME280;10032;51.386;12.516;2023-08-17T01:18:29;100375.97;;;22.08;100.00
19748;BME280;10032;51.386;12.516;2023-08-17T01:20:57;100380.84;;;22.11;100.00
19748;BME280;10032;51.386;12.516;2023-08-17T01:23:22;100384.75;;;22.10;100.00
19748;BME280;10032;51.386;12.516;2023-08-17T01:25:48;100364.28;;;22.11;100.00
19748;BME280;10032;51.386;12.516;2023-08-17T01:28:13;100370.16;;;22.09;100.00
19748;BME280;10032;51.386;12.516;2023-08-17T01:31:15;100371.09;;;22.05;100.00
19748;BME280;10032;51.386;12.516;2023-08-17T01:33:49;100373.53;;;22.06;100.00
19748;BME280;10032;51.386;12.516;2023-08-17T01:36:35;100363.13;;;22.03;100.00
19748;BME280;10032;51.386;12.516;2023-08-17T01:39:01;100352.75;;;22.00;100.00
19748;BME280;10032;51.386;12.516;2023-08-17T01:41:29;100357.78;;;21.98;100.00
19748;BME280;10032;51.386;12.516;2023-08-17T01:43:56;100352.88;;;21.95;100.00
19748;BME280;10032;51.386;12.516;2023-08-17T01:46:22;100352.41;;;21.93;100.00
19748;BME280;10032;51.386;12.516;2023-08-17T01:48:48;100354.47;;;21.88;100.00
19748;BME280;10032;51.386;12.516;2023-08-17T01:51:18;100353.16;;;21.85;100.00
19748;BME280;10032;51.386;12.516;2023-08-17T01:53:45;100353.16;;;21.85;100.00
19748;BME280;10032;51.386;12.516;2023-08-17T01:56:11;100362.91;;;21.83;100.00
19748;BME280;10032;51.386;12.516;2023-08-17T01:58:36;100376.69;;;21.83;100.00
19748;BME280;10032;51.386;12.516;2023-08-17T02:01:01;100380.59;;;21.82;100.00
19748;BME280;10032;51.386;12.516;2023-08-17T02:03:27;100385.63;;;21.80;100.00
19748;BME280;10032;51.386;12.516;2023-08-17T02:05:55;100378.44;;;21.79;100.00
19748;BME280;10032;51.386;12.516;2023-08-17T02:08:21;100380.91;;;21.80;100.00
19748;BME280;10032;51.386;12.516;2023-08-17T02:10:46;100389.81;;;21.77;100.00
19748;BME280;10032;51.386;12.516;2023-08-17T02:13:12;100401.97;;;21.76;100.00
19748;BME280;10032;51.386;12.516;2023-08-17T02:15:39;100412.56;;;21.83;100.00
19748;BME280;10032;51.386;12.516;2023-08-17T02:18:04;100411.13;;;21.85;100.00
19748;BME280;10032;51.386;12.516;2023-08-17T02:20:30;100419.25;;;21.90;100.00
19748;BME280;10032;51.386;12.516;2023-08-17T02:22:55;100434.38;;;21.93;100.00
19748;BME280;10032;51.386;12.516;2023-08-17T02:25:20;100442.34;;;21.94;100.00
19748;BME280;10032;51.386;12.516;2023-08-17T02:27:46;100457.63;;;22.00;100.00
19748;BME280;10032;51.386;12.516;2023-08-17T02:30:12;100463.50;;;22.07;100.00
19748;BME280;10032;51.386;12.516;2023-08-17T02:32:37;100451.97;;;22.05;100.00
19748;BME280;10032;51.386;12.516;2023-08-17T02:35:03;100453.09;;;22.04;100.00
19748;BME280;10032;51.386;12.516;2023-08-17T02:37:28;100453.28;;;22.08;100.00
19748;BME280;10032;51.386;12.516;2023-08-17T02:39:54;100466.94;;;22.13;100.00
19748;BME280;10032;51.386;12.516;2023-08-17T02:42:19;100479.59;;;22.14;100.00
19748;BME280;10032;51.386;12.516;2023-08-17T02:44:45;100482.53;;;22.17;100.00
19748;BME280;10032;51.386;12.516;2023-08-17T02:47:10;100476.41;;;22.20;100.00
19748;BME280;10032;51.386;12.516;2023-08-17T02:49:36;100469.72;;;22.21;100.00
19748;BME280;10032;51.386;12.516;2023-08-17T02:52:01;100475.44;;;22.25;100.00
19748;BME280;10032;51.386;12.516;2023-08-17T02:54:27;100473.28;;;22.22;100.00
19748;BME280;10032;51.386;12.516;2023-08-17T02:56:52;100476.41;;;22.20;100.00
19748;BME280;10032;51.386;12.516;2023-08-17T02:59:17;100474.59;;;22.24;100.00
19748;BME280;10032;51.386;12.516;2023-08-17T03:01:44;100477.88;;;22.26;100.00
19748;BME280;10032;51.386;12.516;2023-08-17T03:04:10;100471.97;;;22.19;100.00
19748;BME280;10032;51.386;12.516;2023-08-17T03:06:35;100477.00;;;22.17;100.00
19748;BME280;10032;51.386;12.516;2023-08-17T03:09:01;100483.94;;;22.06;100.00
19748;BME280;10032;51.386;12.516;2023-08-17T03:11:26;100486.22;;;22.04;100.00
19748;BME280;10032;51.386;12.516;2023-08-17T03:13:52;100494.13;;;21.97;100.00
19748;BME280;10032;51.386;12.516;2023-08-17T03:16:19;100503.53;;;21.96;100.00
19748;BME280;10032;51.386;12.516;2023-08-17T03:18:44;100502.88;;;21.91;100.00
19748;BME280;10032;51.386;12.516;2023-08-17T03:21:10;100504.31;;;21.88;100.00
19748;BME280;10032;51.386;12.516;2023-08-17T03:23:35;100510.28;;;21.82;100.00
19748;BME280;10032;51.386;12.516;2023-08-17T03:26:00;100511.84;;;21.74;100.00
19748;BME280;10032;51.386;12.516;2023-08-17T03:28:27;100498.25;;;21.64;100.00
19748;BME280;10032;51.386;12.516;2023-08-17T03:30:56;100493.38;;;21.61;100.00
19748;BME280;10032;51.386;12.516;2023-08-17T03:33:21;100473.19;;;21.52;100.00
19748;BME280;10032;51.386;12.516;2023-08-17T03:35:47;100463.31;;;21.51;100.00
19748;BME280;10032;51.386;12.516;2023-08-17T03:38:12;100447.38;;;21.48;100.00
19748;BME280;10032;51.386;12.516;2023-08-17T03:40:38;100452.81;;;21.40;100.00
19748;BME280;10032;51.386;12.516;2023-08-17T03:43:04;100445.09;;;21.28;100.00
19748;BME280;10032;51.386;12.516;2023-08-17T03:45:29;100435.53;;;21.26;100.00
19748;BME280;10032;51.386;12.516;2023-08-17T03:47:56;100424.81;;;21.24;100.00
19748;BME280;10032;51.386;12.516;2023-08-17T03:50:21;100422.03;;;21.24;100.00
19748;BME280;10032;51.386;12.516;2023-08-17T03:52:47;100417.53;;;21.28;100.00
19748;BME280;10032;51.386;12.516;2023-08-17T03:55:12;100408.66;;;21.31;100.00
19748;BME280;10032;51.386;12.516;2023-08-17T03:57:37;100413.03;;;21.32;100.00
19748;BME280;10032;51.386;12.516;2023-08-17T04:00:03;100408.66;;;21.31;100.00
19748;BME280;10032;51.386;12.516;2023-08-17T04:02:31;100413.03;;;21.32;100.00
19748;BME280;10032;51.386;12.516;2023-08-17T04:04:56;100413.03;;;21.32;100.00
19748;BME280;10032;51.386;12.516;2023-08-17T04:07:22;100428.13;;;21.35;100.00
19748;BME280;10032;51.386;12.516;2023-08-17T04:09:48;100440.19;;;21.39;100.00
19748;BME280;10032;51.386;12.516;2023-08-17T04:12:14;100446.06;;;21.46;100.00
19748;BME280;10032;51.386;12.516;2023-08-17T04:14:39;100450.31;;;21.52;100.00
19748;BME280;10032;51.386;12.516;2023-08-17T04:17:05;100455.66;;;21.48;100.00
19748;BME280;10032;51.386;12.516;2023-08-17T04:19:30;100469.91;;;21.50;100.00
19748;BME280;10032;51.386;12.516;2023-08-17T04:21:55;100477.09;;;21.51;100.00
19748;BME280;10032;51.386;12.516;2023-08-17T04:24:21;100490.88;;;21.51;100.00
19748;BME280;10032;51.386;12.516;2023-08-17T04:26:46;100512.19;;;21.59;100.00
19748;BME280;10032;51.386;12.516;2023-08-17T04:29:12;100540.13;;;21.66;100.00
19748;BME280;10032;51.386;12.516;2023-08-17T04:31:37;100543.72;;;21.67;100.00
19748;BME280;10032;51.386;12.516;2023-08-17T04:34:03;100555.81;;;21.57;100.00
19748;BME280;10032;51.386;12.516;2023-08-17T04:36:28;100549.59;;;21.52;100.00
19748;BME280;10032;51.386;12.516;2023-08-17T04:38:54;100547.66;;;21.52;100.00
19748;BME280;10032;51.386;12.516;2023-08-17T05:04:59;100454.25;;;21.15;100.00
19748;BME280;10032;51.386;12.516;2023-08-17T05:07:25;100445.81;;;21.12;100.00
19748;BME280;10032;51.386;12.516;2023-08-17T05:09:53;100441.59;;;21.14;100.00
19748;BME280;10032;51.386;12.516;2023-08-17T05:12:21;100432.50;;;21.14;100.00
19748;BME280;10032;51.386;12.516;2023-08-17T05:14:59;100419.16;;;21.07;100.00
19748;BME280;10032;51.386;12.516;2023-08-17T05:17:24;100425.63;;;21.03;100.00
19748;BME280;10032;51.386;12.516;2023-08-17T05:19:50;100416.03;;;21.00;100.00
19748;BME280;10032;51.386;12.516;2023-08-17T05:22:15;100412.16;;;21.01;100.00
19748;BME280;10032;51.386;12.516;2023-08-17T05:24:41;100407.94;;;21.04;100.00
19748;BME280;10032;51.386;12.516;2023-08-17T05:27:12;100403.38;;;20.99;100.00
19748;BME280;10032;51.386;12.516;2023-08-17T05:29:37;100393.28;;;20.95;100.00
19748;BME280;10032;51.386;12.516;2023-08-17T05:32:08;100394.59;;;20.97;100.00
19748;BME280;10032;51.386;12.516;2023-08-17T05:34:36;100381.94;;;20.96;100.00
19748;BME280;10032;51.386;12.516;2023-08-17T05:37:10;100377.28;;;20.97;100.00
19748;BME280;10032;51.386;12.516;2023-08-17T05:39:36;100362.78;;;20.91;100.00
19748;BME280;10032;51.386;12.516;2023-08-17T05:42:01;100367.50;;;20.91;100.00
19748;BME280;10032;51.386;12.516;2023-08-17T05:44:29;100376.06;;;20.89;100.00
19748;BME280;10032;51.386;12.516;2023-08-17T05:47:02;100385.44;;;20.88;100.00
19748;BME280;10032;51.386;12.516;2023-08-17T05:49:38;100385.75;;;20.87;100.00
19748;BME280;10032;51.386;12.516;2023-08-17T05:52:28;100385.44;;;20.88;100.00
19748;BME280;10032;51.386;12.516;2023-08-17T05:54:55;100377.19;;;20.88;100.00
19748;BME280;10032;51.386;12.516;2023-08-17T05:57:20;100392.59;;;20.89;100.00
19748;BME280;10032;51.386;12.516;2023-08-17T05:59:46;100393.69;;;20.88;100.00
19748;BME280;10032;51.386;12.516;2023-08-17T06:02:32;100387.59;;;20.91;100.00
19748;BME280;10032;51.386;12.516;2023-08-17T06:05:05;100379.09;;;20.88;100.00
19748;BME280;10032;51.386;12.516;2023-08-17T06:07:55;100379.94;;;20.88;100.00
19748;BME280;10032;51.386;12.516;2023-08-17T06:11:04;100374.94;;;20.90;100.00
19748;BME280;10032;51.386;12.516;2023-08-17T06:16:16;100362.19;;;20.94;100.00
19748;BME280;10032;51.386;12.516;2023-08-17T06:18:42;100356.97;;;20.93;100.00
19748;BME280;10032;51.386;12.516;2023-08-17T06:21:08;100354.41;;;20.96;100.00
19748;BME280;10032;51.386;12.516;2023-08-17T06:23:33;100343.81;;;20.90;100.00
19748;BME280;10032;51.386;12.516;2023-08-17T06:25:59;100340.25;;;20.89;100.00
19748;BME280;10032;51.386;12.516;2023-08-17T06:28:26;100332.47;;;20.91;100.00
19748;BME280;10032;51.386;12.516;2023-08-17T06:30:55;100338.00;;;20.91;100.00
19748;BME280;10032;51.386;12.516;2023-08-17T06:33:21;100327.50;;;20.93;100.00
19748;BME280;10032;51.386;12.516;2023-08-17T06:35:57;100322.16;;;20.97;100.00
19748;BME280;10032;51.386;12.516;2023-08-17T06:38:26;100310.50;;;21.00;100.00
19748;BME280;10032;51.386;12.516;2023-08-17T06:40:52;100320.25;;;21.06;100.00
19748;BME280;10032;51.386;12.516;2023-08-17T06:43:24;100321.97;;;21.15;100.00
19748;BME280;10032;51.386;12.516;2023-08-17T06:46:01;100341.44;;;21.19;100.00
19748;BME280;10032;51.386;12.516;2023-08-17T06:48:27;100339.34;;;21.24;100.00
19748;BME280;10032;51.386;12.516;2023-08-17T06:50:53;100334.72;;;21.33;100.00
19748;BME280;10032;51.386;12.516;2023-08-17T06:53:36;100337.16;;;21.35;100.00
19748;BME280;10032;51.386;12.516;2023-08-17T06:56:20;100346.78;;;21.46;100.00
19748;BME280;10032;51.386;12.516;2023-08-17T06:58:51;100343.44;;;21.57;100.00
19748;BME280;10032;51.386;12.516;2023-08-17T07:01:19;100338.75;;;21.66;100.00
19748;BME280;10032;51.386;12.516;2023-08-17T07:03:59;100347.28;;;21.70;100.00
19748;BME280;10032;51.386;12.516;2023-08-17T07:06:56;100360.13;;;21.83;100.00
19748;BME280;10032;51.386;12.516;2023-08-17T07:09:30;100367.97;;;21.89;100.00
19748;BME280;10032;51.386;12.516;2023-08-17T07:12:06;100390.09;;;22.06;100.00
19748;BME280;10032;51.386;12.516;2023-08-17T07:14:53;100399.56;;;22.22;100.00
19748;BME280;10032;51.386;12.516;2023-08-17T07:17:25;100405.53;;;22.46;100.00
19748;BME280;10032;51.386;12.516;2023-08-17T07:54:38;100384.59;;;22.79;100.00
19748;BME280;10032;51.386;12.516;2023-08-17T08:01:15;100406.06;;;22.99;100.00
19748;BME280;10032;51.386;12.516;2023-08-17T08:03:47;100404.47;;;23.07;100.00
19748;BME280;10032;51.386;12.516;2023-08-17T08:06:12;100412.59;;;23.12;100.00
19748;BME280;10032;51.386;12.516;2023-08-17T08:08:42;100401.19;;;23.13;100.00
19748;BME280;10032;51.386;12.516;2023-08-17T08:11:30;100405.91;;;23.13;100.00
19748;BME280;10032;51.386;12.516;2023-08-17T08:13:57;100392.72;;;23.10;100.00
19748;BME280;10032;51.386;12.516;2023-08-17T08:16:41;100384.59;;;23.05;100.00
19748;BME280;10032;51.386;12.516;2023-08-17T08:19:06;100375.66;;;22.99;100.00
19748;BME280;10032;51.386;12.516;2023-08-17T08:21:52;100377.28;;;23.00;100.00
19748;BME280;10032;51.386;12.516;2023-08-17T08:24:20;100376.16;;;23.01;100.00
19748;BME280;10032;51.386;12.516;2023-08-17T08:26:51;100367.22;;;23.04;100.00
19748;BME280;10032;51.386;12.516;2023-08-17T08:29:44;100367.19;;;23.13;100.00
19748;BME280;10032;51.386;12.516;2023-08-17T08:33:03;100374.84;;;23.24;100.00
19748;BME280;10032;51.386;12.516;2023-08-17T08:35:29;100378.44;;;23.25;100.00
19748;BME280;10032;51.386;12.516;2023-08-17T08:37:55;100388.34;;;23.34;100.00
19748;BME280;10032;51.386;12.516;2023-08-17T08:40:32;100380.97;;;23.55;100.00
19748;BME280;10032;51.386;12.516;2023-08-17T08:43:07;100380.91;;;23.72;100.00
19748;BME280;10032;51.386;12.516;2023-08-17T08:45:37;100376.31;;;23.85;100.00
19748;BME280;10032;51.386;12.516;2023-08-17T08:48:31;100387.59;;;23.88;100.00
19748;BME280;10032;51.386;12.516;2023-08-17T09:00:33;100374.13;;;24.65;100.00
19748;BME280;10032;51.386;12.516;2023-08-17T09:03:29;100374.13;;;24.86;100.00
19748;BME280;10032;51.386;12.516;2023-08-17T09:06:52;100382.81;;;24.84;100.00
19748;BME280;10032;51.386;12.516;2023-08-17T09:09:44;100392.94;;;25.01;100.00
19748;BME280;10032;51.386;12.516;2023-08-17T09:18:43;100382.13;;;24.87;100.00
19748;BME280;10032;51.386;12.516;2023-08-17T09:21:31;100382.41;;;24.94;100.00
19748;BME280;10032;51.386;12.516;2023-08-17T09:24:16;100381.56;;;25.14;100.00
19748;BME280;10032;51.386;12.516;2023-08-17T09:26:44;100384.53;;;25.09;100.00
19748;BME280;10032;51.386;12.516;2023-08-17T09:29:25;100392.94;;;25.21;100.00
19748;BME280;10032;51.386;12.516;2023-08-17T09:32:11;100380.34;;;25.24;100.00
19748;BME280;10032;51.386;12.516;2023-08-17T09:34:41;100379.88;;;25.54;100.00
19748;BME280;10032;51.386;12.516;2023-08-17T09:39:49;100396.09;;;25.52;100.00
19748;BME280;10032;51.386;12.516;2023-08-17T09:42:16;100387.91;;;25.35;100.00
19748;BME280;10032;51.386;12.516;2023-08-17T09:44:44;100393.38;;;25.23;100.00
19748;BME280;10032;51.386;12.516;2023-08-17T09:47:10;100385.84;;;25.32;100.00
19748;BME280;10032;51.386;12.516;2023-08-17T09:49:36;100375.72;;;25.60;100.00
19748;BME280;10032;51.386;12.516;2023-08-17T09:52:01;100368.66;;;25.95;100.00
19748;BME280;10032;51.386;12.516;2023-08-17T09:54:30;100354.31;;;26.17;100.00
19748;BME280;10032;51.386;12.516;2023-08-17T09:56:58;100368.44;;;26.12;100.00
19748;BME280;10032;51.386;12.516;2023-08-17T09:59:23;100378.84;;;26.39;100.00
19748;BME280;10032;51.386;12.516;2023-08-17T10:01:51;100375.59;;;26.49;100.00
19748;BME280;10032;51.386;12.516;2023-08-17T10:04:23;100370.47;;;26.75;100.00
19748;BME280;10032;51.386;12.516;2023-08-17T10:06:54;100374.03;;;26.88;100.00
19748;BME280;10032;51.386;12.516;2023-08-17T10:09:24;100374.44;;;27.02;100.00
19748;BME280;10032;51.386;12.516;2023-08-17T10:11:55;100374.19;;;27.07;100.00
19748;BME280;10032;51.386;12.516;2023-08-17T10:14:34;100363.34;;;27.29;100.00
19748;BME280;10032;51.386;12.516;2023-08-17T10:17:06;100372.47;;;27.57;100.00
19748;BME280;10032;51.386;12.516;2023-08-17T10:19:51;100374.69;;;27.79;100.00
19748;BME280;10032;51.386;12.516;2023-08-17T10:25:00;100369.72;;;28.35;100.00
19748;BME280;10032;51.386;12.516;2023-08-17T10:27:26;100361.53;;;28.76;100.00
19748;BME280;10032;51.386;12.516;2023-08-17T10:29:52;100370.75;;;28.61;100.00
19748;BME280;10032;51.386;12.516;2023-08-17T10:32:20;100362.69;;;28.56;100.00
19748;BME280;10032;51.386;12.516;2023-08-17T10:34:47;100366.50;;;28.48;100.00
19748;BME280;10032;51.386;12.516;2023-08-17T10:37:14;100369.72;;;28.19;100.00
19748;BME280;10032;51.386;12.516;2023-08-17T10:39:45;100364.38;;;27.95;100.00
19748;BME280;10032;51.386;12.516;2023-08-17T10:42:11;100373.81;;;28.06;100.00
19748;BME280;10032;51.386;12.516;2023-08-17T10:49:56;100358.59;;;28.69;100.00
19748;BME280;10032;51.386;12.516;2023-08-17T10:54:52;100364.38;;;28.95;100.00
19748;BME280;10032;51.386;12.516;2023-08-17T11:05:39;100361.13;;;29.31;100.00
19748;BME280;10032;51.386;12.516;2023-08-17T11:08:06;100363.84;;;29.47;100.00
19748;BME280;10032;51.386;12.516;2023-08-17T11:10:34;100356.56;;;29.61;100.00
19748;BME280;10032;51.386;12.516;2023-08-17T11:13:00;100360.53;;;29.60;100.00
19748;BME280;10032;51.386;12.516;2023-08-17T11:15:34;100358.69;;;29.68;100.00
19748;BME280;10032;51.386;12.516;2023-08-17T11:18:03;100367.28;;;29.40;100.00
19748;BME280;10032;51.386;12.516;2023-08-17T11:20:29;100365.09;;;29.49;100.00
19748;BME280;10032;51.386;12.516;2023-08-17T11:22:54;100355.38;;;29.62;100.00
19748;BME280;10032;51.386;12.516;2023-08-17T11:25:20;100360.34;;;29.72;100.00
19748;BME280;10032;51.386;12.516;2023-08-17T11:27:46;100358.13;;;29.81;100.00
19748;BME280;10032;51.386;12.516;2023-08-17T11:30:12;100351.16;;;29.94;100.00
19748;BME280;10032;51.386;12.516;2023-08-17T11:32:38;100366.06;;;29.79;100.00
19748;BME280;10032;51.386;12.516;2023-08-17T11:35:03;100359.22;;;29.99;100.00
19748;BME280;10032;51.386;12.516;2023-08-17T11:37:29;100356.53;;;30.29;100.00
19748;BME280;10032;51.386;12.516;2023-08-17T11:39:54;100355.44;;;30.33;100.00
19748;BME280;10032;51.386;12.516;2023-08-17T11:42:19;100366.06;;;30.50;100.00
19748;BME280;10032;51.386;12.516;2023-08-17T11:44:45;100366.63;;;30.59;100.00
19748;BME280;10032;51.386;12.516;2023-08-17T11:47:10;100355.03;;;30.61;100.00
19748;BME280;10032;51.386;12.516;2023-08-17T11:49:37;100357.25;;;30.48;100.00
19748;BME280;10032;51.386;12.516;2023-08-17T11:52:02;100354.03;;;30.72;100.00
19748;BME280;10032;51.386;12.516;2023-08-17T11:54:27;100350.81;;;31.00;100.00
19748;BME280;10032;51.386;12.516;2023-08-17T11:56:53;100350.44;;;31.01;100.00
19748;BME280;10032;51.386;12.516;2023-08-17T11:59:19;100348.97;;;31.14;100.00
19748;BME280;10032;51.386;12.516;2023-08-17T12:01:44;100348.13;;;31.10;100.00
19748;BME280;10032;51.386;12.516;2023-08-17T12:04:10;100337.13;;;31.24;100.00
19748;BME280;10032;51.386;12.516;2023-08-17T12:06:44;100339.75;;;31.14;100.00
19748;BME280;10032;51.386;12.516;2023-08-17T12:09:10;100334.69;;;31.23;100.00
19748;BME280;10032;51.386;12.516;2023-08-17T12:11:37;100330.69;;;31.24;100.00
19748;BME280;10032;51.386;12.516;2023-08-17T12:14:10;100334.50;;;31.38;100.00
19748;BME280;10032;51.386;12.516;2023-08-17T12:16:48;100326.44;;;31.73;100.00
19748;BME280;10032;51.386;12.516;2023-08-17T12:19:14;100328.38;;;31.69;100.00
19748;BME280;10032;51.386;12.516;2023-08-17T12:21:41;100333.34;;;31.46;100.00
19748;BME280;10032;51.386;12.516;2023-08-17T12:24:08;100314.59;;;31.50;100.00
19748;BME280;10032;51.386;12.516;2023-08-17T12:26:34;100332.06;;;31.73;100.00
19748;BME280;10032;51.386;12.516;2023-08-17T12:29:01;100328.19;;;31.88;98.16
19748;BME280;10032;51.386;12.516;2023-08-17T12:31:29;100329.03;;;31.92;99.51
19748;BME280;10032;51.386;12.516;2023-08-17T12:33:55;100309.72;;;31.84;96.96
19748;BME280;10032;51.386;12.516;2023-08-17T12:36:20;100314.75;;;32.11;95.83
19748;BME280;10032;51.386;12.516;2023-08-17T12:38:46;100307.53;;;32.10;97.10
19748;BME280;10032;51.386;12.516;2023-08-17T12:41:13;100302.22;;;31.95;94.42
19748;BME280;10032;51.386;12.516;2023-08-17T12:43:38;100300.63;;;31.57;96.44
19748;BME280;10032;51.386;12.516;2023-08-17T12:46:04;100306.19;;;31.50;97.82
19748;BME280;10032;51.386;12.516;2023-08-17T12:48:29;100306.31;;;31.64;98.56
19748;BME280;10032;51.386;12.516;2023-08-17T12:50:55;100298.09;;;31.82;96.67
19748;BME280;10032;51.386;12.516;2023-08-17T12:53:21;100293.00;;;31.98;95.68
19748;BME280;10032;51.386;12.516;2023-08-17T12:55:47;100306.28;;;32.04;95.10
19748;BME280;10032;51.386;12.516;2023-08-17T12:58:12;100292.72;;;32.10;95.99
19748;BME280;10032;51.386;12.516;2023-08-17T13:00:37;100302.78;;;32.21;95.35
19748;BME280;10032;51.386;12.516;2023-08-17T13:03:03;100297.13;;;32.14;93.63
19748;BME280;10032;51.386;12.516;2023-08-17T13:05:28;100294.31;;;32.11;92.61
19748;BME280;10032;51.386;12.516;2023-08-17T13:07:54;100296.41;;;32.24;94.57
19748;BME280;10032;51.386;12.516;2023-08-17T13:10:19;100295.19;;;32.22;92.97
19748;BME280;10032;51.386;12.516;2023-08-17T13:12:45;100300.00;;;32.21;93.65
19748;BME280;10032;51.386;12.516;2023-08-17T13:15:12;100283.94;;;32.18;91.92
19748;BME280;10032;51.386;12.516;2023-08-17T13:17:37;100291.53;;;32.14;90.50
19748;BME280;10032;51.386;12.516;2023-08-17T13:20:03;100288.22;;;31.98;91.37
19748;BME280;10032;51.386;12.516;2023-08-17T13:22:30;100285.53;;;32.12;91.89
19748;BME280;10032;51.386;12.516;2023-08-17T13:24:56;100281.69;;;32.34;91.68
19748;BME280;10032;51.386;12.516;2023-08-17T13:27:21;100291.56;;;32.21;89.44
19748;BME280;10032;51.386;12.516;2023-08-17T13:29:47;100282.81;;;32.26;89.64
19748;BME280;10032;51.386;12.516;2023-08-17T13:32:12;100282.94;;;32.47;90.01
19748;BME280;10032;51.386;12.516;2023-08-17T13:34:38;100277.78;;;32.56;88.54
19748;BME280;10032;51.386;12.516;2023-08-17T13:37:03;100280.63;;;32.63;86.49
19748;BME280;10032;51.386;12.516;2023-08-17T13:39:28;100284.22;;;32.60;86.28
19748;BME280;10032;51.386;12.516;2023-08-17T13:41:54;100268.53;;;32.52;84.80
19748;BME280;10032;51.386;12.516;2023-08-17T13:44:19;100275.63;;;32.32;82.98
19748;BME280;10032;51.386;12.516;2023-08-17T13:46:45;100269.56;;;32.23;85.97
19748;BME280;10032;51.386;12.516;2023-08-17T13:49:10;100271.38;;;31.98;85.70
19748;BME280;10032;51.386;12.516;2023-08-17T13:51:35;100284.94;;;31.89;87.83
19748;BME280;10032;51.386;12.516;2023-08-17T13:54:01;100274.56;;;31.93;89.62
19748;BME280;10032;51.386;12.516;2023-08-17T13:56:26;100277.88;;;32.09;89.20
19748;BME280;10032;51.386;12.516;2023-08-17T13:58:52;100282.72;;;32.12;88.89
19748;BME280;10032;51.386;12.516;2023-08-17T14:01:17;100271.53;;;32.19;89.14
19748;BME280;10032;51.386;12.516;2023-08-17T14:03:43;100269.09;;;32.14;88.05
19748;BME280;10032;51.386;12.516;2023-08-17T14:06:09;100260.63;;;32.04;89.63
19748;BME280;10032;51.386;12.516;2023-08-17T14:08:34;100258.50;;;31.90;89.56
19748;BME280;10032;51.386;12.516;2023-08-17T14:11:00;100250.84;;;31.80;91.02
19748;BME280;10032;51.386;12.516;2023-08-17T14:13:25;100243.81;;;31.60;89.88
19748;BME280;10032;51.386;12.516;2023-08-17T14:15:51;100244.84;;;31.42;91.01
19748;BME280;10032;51.386;12.516;2023-08-17T14:18:16;100243.13;;;31.30;91.80
19748;BME280;10032;51.386;12.516;2023-08-17T14:20:42;100245.88;;;31.23;92.70
19748;BME280;10032;51.386;12.516;2023-08-17T14:23:07;100248.25;;;31.21;93.92